createdAt,value
2023-05-21T00:02:24.538Z,57.40
2023-05-21T00:04:52.659Z,55.80
2023-05-21T00:07:21.090Z,52.90
2023-05-21T00:09:49.063Z,52.50
2023-05-21T00:12:17.016Z,54.00
2023-05-21T00:14:44.992Z,51.60
2023-05-21T00:17:12.962Z,56.40
2023-05-21T00:19:40.932Z,50.60
2023-05-21T00:22:09.376Z,50.30
2023-05-21T00:24:37.371Z,52.70
2023-05-21T00:27:05.712Z,52.10
2023-05-21T00:29:33.618Z,50.90
2023-05-21T00:32:01.670Z,53.90
2023-05-21T00:34:29.812Z,56.70
2023-05-21T00:36:57.730Z,53.60
2023-05-21T00:39:26.190Z,51.70
2023-05-21T00:41:54.156Z,52.00
2023-05-21T00:44:22.292Z,53.40
2023-05-21T00:46:53.774Z,59.70
2023-05-21T00:49:24.518Z,61.90
2023-05-21T00:51:53.120Z,58.40
2023-05-21T00:54:22.185Z,58.60
2023-05-21T00:56:51.345Z,55.30
2023-05-21T00:59:19.505Z,57.50
2023-05-21T01:01:54.018Z,55.90
2023-05-21T01:04:25.453Z,51.30
2023-05-21T01:06:53.671Z,56.50
2023-05-21T01:09:22.413Z,56.00
2023-05-21T01:11:51.753Z,56.00
2023-05-21T01:14:20.827Z,60.00
2023-05-21T01:16:50.350Z,59.30
2023-05-21T01:19:23.878Z,60.90
2023-05-21T01:24:21.261Z,78.10
2023-05-21T01:26:49.650Z,71.00
2023-05-21T01:29:17.673Z,71.20
2023-05-21T01:31:59.580Z,66.70
2023-05-21T01:34:45.866Z,60.00
2023-05-21T01:37:27.046Z,51.70
2023-05-21T01:40:05.588Z,46.40
2023-05-21T01:42:36.201Z,47.70
2023-05-21T01:45:07.064Z,45.20
2023-05-21T01:47:37.488Z,47.20
2023-05-21T01:50:06.856Z,52.20
2023-05-21T01:52:34.903Z,52.30
2023-05-21T01:55:03.682Z,51.00
2023-05-21T01:57:32.005Z,47.30
2023-05-21T02:00:01.232Z,49.00
2023-05-21T02:02:29.326Z,59.60
2023-05-21T02:04:57.387Z,59.00
2023-05-21T02:07:25.324Z,45.90
2023-05-21T02:09:53.222Z,44.40
2023-05-21T02:12:21.389Z,44.80
2023-05-21T02:14:50.462Z,44.20
2023-05-21T02:17:18.627Z,45.20
2023-05-21T02:19:46.623Z,41.50
2023-05-21T02:22:14.613Z,45.80
2023-05-21T02:24:42.991Z,41.80
2023-05-21T02:27:13.473Z,44.30
2023-05-21T02:29:41.587Z,49.40
2023-05-21T02:32:09.566Z,54.40
2023-05-21T02:34:42.410Z,53.20
2023-05-21T02:37:10.523Z,46.80
2023-05-21T02:39:38.496Z,54.80
2023-05-21T02:42:07.499Z,56.80
2023-05-21T02:44:35.927Z,54.30
2023-05-21T02:47:04.144Z,58.90
2023-05-21T02:49:32.567Z,48.60
2023-05-21T02:52:00.581Z,63.50
2023-05-21T02:54:28.574Z,64.30
2023-05-21T02:56:56.722Z,54.30
2023-05-21T02:59:24.747Z,51.20
2023-05-21T03:01:52.853Z,50.40
2023-05-21T03:04:24.055Z,47.00
2023-05-21T03:06:54.968Z,50.80
2023-05-21T03:09:23.038Z,45.10
2023-05-21T03:11:51.065Z,48.00
2023-05-21T03:14:19.313Z,48.90
2023-05-21T03:16:47.501Z,51.30
2023-05-21T03:19:15.635Z,70.20
2023-05-21T03:21:44.695Z,54.10
2023-05-21T03:24:13.797Z,46.00
2023-05-21T03:26:41.832Z,45.20
2023-05-21T03:29:10.305Z,52.30
2023-05-21T03:31:39.883Z,46.60
2023-05-21T03:34:10.564Z,44.50
2023-05-21T03:36:38.619Z,43.90
2023-05-21T03:39:07.091Z,41.30
2023-05-21T03:41:35.378Z,43.00
2023-05-21T03:44:08.860Z,35.70
2023-05-21T03:46:47.947Z,37.00
2023-05-21T03:49:26.873Z,35.90
2023-05-21T03:51:56.538Z,38.50
2023-05-21T03:54:24.599Z,33.60
2023-05-21T03:56:55.509Z,37.10
2023-05-21T03:59:24.274Z,33.60
2023-05-21T04:01:52.822Z,37.20
2023-05-21T04:04:20.837Z,46.10
2023-05-21T04:06:51.175Z,46.10
2023-05-21T04:09:19.324Z,34.20
2023-05-21T04:11:48.024Z,36.70
2023-05-21T04:14:16.059Z,31.90
2023-05-21T04:16:44.095Z,33.70
2023-05-21T04:19:12.227Z,37.20
2023-05-21T04:21:42.059Z,41.70
2023-05-21T04:24:10.200Z,33.70
2023-05-21T04:26:48.186Z,35.10
2023-05-21T04:29:21.269Z,34.10
2023-05-21T04:34:18.923Z,32.00
2023-05-21T04:36:47.149Z,36.60
2023-05-21T04:39:16.363Z,33.70
2023-05-21T04:41:44.936Z,33.30
2023-05-21T04:44:15.045Z,32.20
2023-05-21T04:46:46.187Z,31.90
2023-05-21T04:49:15.401Z,33.40
2023-05-21T04:51:43.354Z,33.40
2023-05-21T04:54:11.506Z,31.70
2023-05-21T04:56:39.577Z,32.90
2023-05-21T04:59:07.650Z,27.90
2023-05-21T05:01:38.634Z,29.60
2023-05-21T05:04:06.807Z,27.20
2023-05-21T05:06:34.841Z,26.40
2023-05-21T05:09:02.999Z,25.70
2023-05-21T05:11:31.810Z,26.10
2023-05-21T05:13:59.795Z,25.60
2023-05-21T05:16:29.763Z,26.80
2023-05-21T05:18:58.035Z,23.70
2023-05-21T05:21:26.060Z,23.60
2023-05-21T05:23:54.149Z,25.30
2023-05-21T05:26:26.227Z,24.20
2023-05-21T05:28:54.263Z,24.10
2023-05-21T05:31:22.233Z,23.20
2023-05-21T05:33:50.426Z,22.70
2023-05-21T05:36:18.484Z,24.80
2023-05-21T05:38:47.268Z,22.60
2023-05-21T05:41:15.305Z,21.90
2023-05-21T05:43:43.379Z,19.70
2023-05-21T05:46:11.395Z,21.20
2023-05-21T05:48:40.273Z,18.30
2023-05-21T05:51:08.433Z,18.10
2023-05-21T05:53:36.590Z,17.90
2023-05-21T05:56:05.055Z,18.60
2023-05-21T05:58:33.237Z,18.10
2023-05-21T06:01:13.403Z,18.50
2023-05-21T06:03:41.684Z,19.20
2023-05-21T06:06:15.596Z,17.30
2023-05-21T06:08:43.877Z,17.00
2023-05-21T06:11:17.139Z,18.10
2023-05-21T06:13:45.791Z,16.20
2023-05-21T06:16:14.238Z,16.70
2023-05-21T06:18:42.793Z,16.30
2023-05-21T06:21:11.143Z,17.80
2023-05-21T06:23:39.669Z,16.40
2023-05-21T06:26:08.456Z,16.00
2023-05-21T06:28:36.987Z,15.40
2023-05-21T06:31:05.495Z,16.50
2023-05-21T06:33:34.175Z,15.00
2023-05-21T06:36:02.258Z,15.40
2023-05-21T06:38:30.698Z,14.70
2023-05-21T06:40:58.707Z,15.60
2023-05-21T06:43:46.925Z,15.90
2023-05-21T06:46:35.939Z,16.10
2023-05-21T06:49:07.943Z,14.50
2023-05-21T06:51:36.032Z,16.40
2023-05-21T06:54:04.681Z,13.60
2023-05-21T06:56:32.806Z,14.40
2023-05-21T06:59:00.802Z,14.40
2023-05-21T07:01:29.039Z,14.10
2023-05-21T07:03:58.196Z,13.50
2023-05-21T07:06:26.742Z,14.00
2023-05-21T07:08:54.878Z,13.90
2023-05-21T07:11:25.292Z,13.90
2023-05-21T07:13:53.283Z,14.00
2023-05-21T07:16:21.451Z,13.70
2023-05-21T07:18:49.976Z,14.40
2023-05-21T07:21:18.132Z,15.30
2023-05-21T07:23:49.835Z,14.00
2023-05-21T07:26:18.003Z,14.30
2023-05-21T07:28:46.324Z,14.80
2023-05-21T07:31:14.377Z,14.90
2023-05-21T07:33:46.489Z,15.10
2023-05-21T07:36:14.822Z,14.40
2023-05-21T07:38:44.159Z,15.60
2023-05-21T07:41:12.191Z,15.60
2023-05-21T07:43:40.433Z,15.90
2023-05-21T07:46:08.422Z,14.80
2023-05-21T07:48:37.869Z,14.70
2023-05-21T07:51:06.185Z,17.70
2023-05-21T07:53:34.247Z,14.20
2023-05-21T07:56:04.614Z,15.40
2023-05-21T07:58:35.300Z,14.90
2023-05-21T08:01:03.796Z,14.10
2023-05-21T08:03:32.576Z,14.30
2023-05-21T08:06:00.673Z,15.00
2023-05-21T08:08:28.799Z,14.40
2023-05-21T08:10:57.694Z,14.50
2023-05-21T08:13:28.747Z,14.70
2023-05-21T08:15:56.777Z,15.90
2023-05-21T08:18:25.489Z,15.90
2023-05-21T08:20:55.814Z,14.00
2023-05-21T08:23:24.691Z,14.30
2023-05-21T08:25:55.722Z,15.60
2023-05-21T08:28:23.743Z,15.30
2023-05-21T08:30:52.696Z,14.40
2023-05-21T08:33:22.937Z,14.40
2023-05-21T08:35:50.869Z,14.40
2023-05-21T08:38:28.670Z,14.60
2023-05-21T08:41:05.947Z,15.20
2023-05-21T08:43:34.519Z,14.10
2023-05-21T08:46:04.765Z,14.70
2023-05-21T08:48:38.107Z,15.00
2023-05-21T08:51:06.467Z,15.00
2023-05-21T08:53:38.505Z,14.50
2023-05-21T08:56:09.480Z,15.90
2023-05-21T08:58:47.209Z,15.30
2023-05-21T09:01:19.578Z,15.10
2023-05-21T09:03:52.628Z,14.80
2023-05-21T09:06:21.668Z,14.00
2023-05-21T09:08:58.771Z,16.30
2023-05-21T09:11:42.544Z,15.80
2023-05-21T09:14:11.666Z,13.90
2023-05-21T09:17:09.011Z,15.30
2023-05-21T09:19:37.172Z,14.20
2023-05-21T09:22:05.192Z,14.60
2023-05-21T09:24:36.233Z,13.60
2023-05-21T09:27:07.232Z,13.40
2023-05-21T09:29:35.603Z,12.60
2023-05-21T09:32:08.117Z,14.80
2023-05-21T09:34:37.272Z,13.20
2023-05-21T09:37:16.487Z,13.90
2023-05-21T09:39:48.846Z,14.30
2023-05-21T09:42:17.274Z,13.40
2023-05-21T09:44:45.548Z,14.10
2023-05-21T09:47:19.896Z,16.60
2023-05-21T09:49:49.293Z,13.20
2023-05-21T09:52:25.360Z,13.40
2023-05-21T09:54:53.522Z,13.10
2023-05-21T09:57:26.428Z,12.40
2023-05-21T09:59:54.742Z,12.80
2023-05-21T10:02:24.679Z,13.10
2023-05-21T10:04:54.650Z,13.00
2023-05-21T10:07:28.928Z,12.80
2023-05-21T10:09:58.018Z,17.00
2023-05-21T10:12:28.836Z,12.50
2023-05-21T10:15:12.051Z,12.70
2023-05-21T10:17:41.084Z,12.50
2023-05-21T10:20:11.761Z,14.20
2023-05-21T10:22:40.984Z,12.20
2023-05-21T10:25:09.500Z,12.20
2023-05-21T10:27:37.685Z,11.60
2023-05-21T10:30:07.210Z,11.90
2023-05-21T10:32:35.336Z,11.60
2023-05-21T10:35:03.716Z,11.00
2023-05-21T10:37:31.730Z,11.30
2023-05-21T10:39:59.897Z,14.80
2023-05-21T10:42:48.157Z,11.20
2023-05-21T10:45:50.722Z,12.70
2023-05-21T10:48:43.713Z,10.90
2023-05-21T10:52:00.486Z,11.40
2023-05-21T10:54:56.290Z,10.10
2023-05-21T10:57:58.394Z,10.40
2023-05-21T11:00:27.488Z,10.70
2023-05-21T11:02:55.634Z,10.00
2023-05-21T11:05:40.579Z,12.40
2023-05-21T11:08:31.688Z,10.20
2023-05-21T11:10:59.711Z,10.00
2023-05-21T11:13:31.434Z,10.20
2023-05-21T11:15:59.500Z,10.20
2023-05-21T11:18:39.650Z,9.50
2023-05-21T11:21:13.652Z,10.90
2023-05-21T11:23:51.206Z,11.70
2023-05-21T11:26:27.864Z,9.10
2023-05-21T11:29:04.748Z,10.20
2023-05-21T11:31:38.422Z,12.40
2023-05-21T11:34:32.203Z,13.60
2023-05-21T11:37:18.821Z,9.80
2023-05-21T11:39:48.213Z,7.90
2023-05-21T11:42:35.403Z,8.90
2023-05-21T11:45:04.239Z,10.10
2023-05-21T11:47:32.801Z,7.40
2023-05-21T11:50:02.789Z,8.60
2023-05-21T11:52:31.882Z,10.10
2023-05-21T11:55:00.067Z,7.80
2023-05-21T11:57:32.383Z,6.90
2023-05-21T12:00:02.420Z,8.80
2023-05-21T12:02:46.197Z,6.80
2023-05-21T12:05:14.501Z,6.60
2023-05-21T12:07:42.745Z,5.60
2023-05-21T12:10:11.388Z,6.30
2023-05-21T12:12:53.277Z,6.60
2023-05-21T12:15:24.581Z,9.90
2023-05-21T12:17:53.377Z,5.80
2023-05-21T12:20:22.417Z,6.90
2023-05-21T12:22:50.555Z,6.40
2023-05-21T12:25:20.604Z,6.10
2023-05-21T12:27:50.991Z,6.30
2023-05-21T12:30:19.521Z,6.50
2023-05-21T12:32:48.994Z,5.20
2023-05-21T12:35:24.429Z,5.80
2023-05-21T12:37:53.051Z,5.10
2023-05-21T12:40:22.276Z,8.70
2023-05-21T12:42:51.655Z,5.40
2023-05-21T12:45:21.161Z,8.20
2023-05-21T12:47:50.755Z,7.80
2023-05-21T12:50:21.234Z,4.90
2023-05-21T12:52:49.320Z,8.70
2023-05-21T12:55:17.654Z,6.90
2023-05-21T12:57:46.227Z,6.80
2023-05-21T13:00:14.472Z,8.00
2023-05-21T13:02:44.444Z,8.00
2023-05-21T13:05:17.795Z,7.60
2023-05-21T13:07:48.965Z,5.60
2023-05-21T13:10:17.398Z,5.70
2023-05-21T13:12:46.157Z,5.70
2023-05-21T13:15:14.496Z,3.50
2023-05-21T13:17:42.617Z,3.60
2023-05-21T13:20:20.466Z,5.80
2023-05-21T13:22:51.834Z,4.80
2023-05-21T13:25:22.431Z,4.10
2023-05-21T13:27:51.963Z,5.20
2023-05-21T13:30:20.971Z,3.50
2023-05-21T13:32:49.355Z,3.90
2023-05-21T13:35:17.815Z,7.30
2023-05-21T13:37:46.061Z,7.00
2023-05-21T13:40:15.750Z,5.00
2023-05-21T13:42:45.644Z,5.70
2023-05-21T13:45:16.038Z,3.60
2023-05-21T13:47:45.403Z,7.30
2023-05-21T13:50:13.696Z,5.40
2023-05-21T13:52:41.765Z,5.10
2023-05-21T13:55:10.802Z,5.60
2023-05-21T13:57:40.587Z,4.60
2023-05-21T14:00:10.567Z,5.80
2023-05-21T14:02:38.712Z,7.40
2023-05-21T14:05:07.067Z,3.90
2023-05-21T14:07:35.054Z,7.70
2023-05-21T14:10:03.040Z,3.80
2023-05-21T14:12:31.369Z,3.90
2023-05-21T14:14:59.438Z,5.00
2023-05-21T14:17:27.445Z,5.00
2023-05-21T14:19:55.935Z,8.90
2023-05-21T14:22:24.090Z,6.80
2023-05-21T14:24:52.812Z,4.40
2023-05-21T14:27:21.021Z,3.80
2023-05-21T14:29:49.043Z,2.70
2023-05-21T14:32:18.442Z,4.00
2023-05-21T14:34:46.470Z,8.50
2023-05-21T14:37:14.404Z,4.70
2023-05-21T14:39:42.291Z,5.10
2023-05-21T14:42:10.498Z,5.40
2023-05-21T14:44:38.458Z,6.00
2023-05-21T14:47:06.446Z,7.10
2023-05-21T14:49:34.413Z,3.30
2023-05-21T14:52:02.370Z,4.00
2023-05-21T14:54:30.397Z,6.10
2023-05-21T14:56:58.380Z,6.40
2023-05-21T14:59:26.331Z,3.10
2023-05-21T15:01:54.422Z,4.30
2023-05-21T15:04:22.510Z,5.00
2023-05-21T15:06:51.268Z,4.50
2023-05-21T15:09:19.177Z,4.60
2023-05-21T15:11:47.155Z,4.30
2023-05-21T15:14:15.110Z,2.90
2023-05-21T15:16:43.162Z,4.50
2023-05-21T15:19:11.975Z,4.00
2023-05-21T15:21:40.006Z,2.70
2023-05-21T15:24:08.112Z,5.80
2023-05-21T15:26:36.138Z,3.00
2023-05-21T15:29:04.187Z,4.70
2023-05-21T15:31:32.783Z,3.30
2023-05-21T15:34:00.935Z,5.70
2023-05-21T15:36:28.876Z,5.50
2023-05-21T15:38:56.942Z,6.80
2023-05-21T15:41:24.873Z,5.10
2023-05-21T15:43:52.855Z,5.80
2023-05-21T15:46:21.202Z,3.80
2023-05-21T15:48:49.246Z,4.30
2023-05-21T15:51:20.893Z,4.00
2023-05-21T15:53:48.897Z,3.20
2023-05-21T15:56:16.946Z,5.90
2023-05-21T15:58:44.961Z,7.40
2023-05-21T16:01:13.172Z,5.40
2023-05-21T16:03:41.210Z,8.50
2023-05-21T16:06:10.405Z,3.60
2023-05-21T16:08:38.295Z,5.70
2023-05-21T16:11:06.418Z,5.70
2023-05-21T16:13:34.409Z,4.00
2023-05-21T16:16:02.560Z,5.90
2023-05-21T16:18:30.779Z,4.30
2023-05-21T16:20:58.729Z,7.70
2023-05-21T16:23:26.707Z,5.30
2023-05-21T16:25:54.658Z,4.70
2023-05-21T16:28:24.441Z,5.60
2023-05-21T16:30:52.552Z,7.40
2023-05-21T16:33:20.534Z,7.20
2023-05-21T16:35:48.494Z,4.00
2023-05-21T16:38:16.587Z,5.20
2023-05-21T16:40:45.356Z,4.50
2023-05-21T16:43:13.417Z,5.80
2023-05-21T16:45:43.416Z,3.90
2023-05-21T16:48:12.879Z,5.70
2023-05-21T16:50:41.257Z,4.70
2023-05-21T16:53:09.977Z,5.40
2023-05-21T16:55:38.533Z,4.40
2023-05-21T16:58:06.960Z,5.10
2023-05-21T17:00:34.971Z,3.60
2023-05-21T17:03:03.237Z,4.10
2023-05-21T17:05:31.376Z,3.70
2023-05-21T17:07:59.451Z,4.10
2023-05-21T17:10:27.770Z,4.20
2023-05-21T17:12:56.361Z,6.80
2023-05-21T17:15:26.818Z,5.10
2023-05-21T17:17:54.769Z,4.70
2023-05-21T17:20:22.868Z,4.40
2023-05-21T17:22:50.803Z,5.30
2023-05-21T17:25:19.241Z,4.50
2023-05-21T17:27:47.395Z,4.30
2023-05-21T17:30:15.649Z,7.60
2023-05-21T17:32:43.710Z,3.30
2023-05-21T17:35:11.622Z,4.40
2023-05-21T17:37:39.631Z,4.70
2023-05-21T17:40:08.338Z,6.80
2023-05-21T17:42:36.325Z,4.00
2023-05-21T17:45:04.828Z,3.50
2023-05-21T17:47:34.651Z,4.30
2023-05-21T17:50:02.786Z,5.70
2023-05-21T17:52:30.946Z,5.80
2023-05-21T17:54:58.858Z,5.20
2023-05-21T17:57:26.820Z,3.80
2023-05-21T17:59:55.592Z,5.60
2023-05-21T18:02:23.652Z,3.90
2023-05-21T18:04:52.729Z,4.80
2023-05-21T18:07:22.280Z,3.40
2023-05-21T18:09:50.389Z,5.80
2023-05-21T18:12:18.671Z,4.70
2023-05-21T18:14:47.541Z,3.20
2023-05-21T18:17:15.796Z,4.50
2023-05-21T18:19:43.835Z,3.20
2023-05-21T18:22:11.945Z,3.80
2023-05-21T18:24:39.888Z,4.90
2023-05-21T18:27:07.895Z,5.00
2023-05-21T18:29:39.726Z,3.50
2023-05-21T18:32:10.942Z,6.90
2023-05-21T18:34:39.066Z,7.90
2023-05-21T18:37:07.045Z,6.80
2023-05-21T18:39:35.050Z,6.00
2023-05-21T18:42:12.825Z,5.10
2023-05-21T18:44:45.774Z,4.90
2023-05-21T18:47:13.895Z,4.20
2023-05-21T18:49:41.982Z,5.70
2023-05-21T18:52:09.929Z,4.20
2023-05-21T18:54:37.883Z,4.30
2023-05-21T18:57:06.789Z,4.70
2023-05-21T18:59:35.092Z,3.90
2023-05-21T19:02:04.398Z,3.70
2023-05-21T19:04:33.294Z,7.50
2023-05-21T19:07:02.783Z,5.40
2023-05-21T19:09:30.732Z,5.80
2023-05-21T19:12:00.547Z,3.60
2023-05-21T19:14:28.587Z,8.80
2023-05-21T19:16:57.025Z,4.20
2023-05-21T19:19:25.451Z,4.00
2023-05-21T19:21:53.610Z,5.10
2023-05-21T19:24:21.748Z,4.20
2023-05-21T19:26:50.062Z,3.30
2023-05-21T19:29:18.116Z,4.40
2023-05-21T19:31:46.136Z,3.80
2023-05-21T19:34:14.093Z,7.10
2023-05-21T19:36:51.987Z,4.80
2023-05-21T19:39:21.521Z,5.10
2023-05-21T19:41:49.572Z,4.00
2023-05-21T19:44:18.736Z,4.30
2023-05-21T19:46:46.736Z,4.50
2023-05-21T19:49:15.938Z,6.80
2023-05-21T19:51:44.038Z,3.10
2023-05-21T19:54:12.115Z,5.00
2023-05-21T19:56:40.152Z,3.90
2023-05-21T19:59:08.238Z,4.80
2023-05-21T20:01:39.537Z,10.30
2023-05-21T20:04:07.771Z,3.90
2023-05-21T20:06:36.137Z,4.70
2023-05-21T20:09:05.385Z,6.60
2023-05-21T20:11:34.450Z,6.50
2023-05-21T20:14:02.437Z,7.50
2023-05-21T20:16:30.471Z,4.50
2023-05-21T20:18:58.547Z,5.30
2023-05-21T20:21:26.653Z,6.60
2023-05-21T20:23:54.711Z,5.30
2023-05-21T20:26:23.252Z,8.30
2023-05-21T20:28:51.420Z,6.60
2023-05-21T20:31:19.578Z,11.60
2023-05-21T20:33:50.567Z,7.40
2023-05-21T20:36:21.177Z,7.50
2023-05-21T20:38:49.341Z,8.00
2023-05-21T20:41:17.491Z,5.10
2023-05-21T20:43:46.058Z,6.10
2023-05-21T20:46:14.142Z,5.40
2023-05-21T20:48:43.617Z,7.70
2023-05-21T20:51:12.179Z,7.90
2023-05-21T20:53:43.761Z,5.90
2023-05-21T20:56:14.880Z,5.20
2023-05-21T20:58:42.862Z,6.20
2023-05-21T21:01:11.126Z,7.60
2023-05-21T21:03:41.385Z,4.40
2023-05-21T21:06:09.831Z,7.10
2023-05-21T21:08:40.379Z,5.10
2023-05-21T21:11:09.063Z,5.20
2023-05-21T21:13:37.126Z,7.10
2023-05-21T21:16:05.930Z,5.20
2023-05-21T21:18:34.184Z,7.40
2023-05-21T21:21:02.219Z,7.70
2023-05-21T21:23:30.316Z,5.80
2023-05-21T21:25:58.549Z,6.00
2023-05-21T21:28:26.576Z,7.70
2023-05-21T21:30:54.682Z,6.50
2023-05-21T21:33:24.396Z,6.70
2023-05-21T21:35:52.499Z,6.20
2023-05-21T21:38:20.463Z,5.10
2023-05-21T21:40:48.654Z,5.10
2023-05-21T21:43:16.690Z,5.90
2023-05-21T21:45:44.819Z,5.20
2023-05-21T21:48:13.031Z,6.00
2023-05-21T21:50:41.254Z,7.30
2023-05-21T21:53:14.036Z,8.10
2023-05-21T21:55:42.216Z,6.00
2023-05-21T21:58:10.464Z,11.50
2023-05-21T22:00:38.796Z,9.70
2023-05-21T22:03:07.016Z,7.50
2023-05-21T22:05:35.696Z,5.50
2023-05-21T22:08:03.861Z,11.10
2023-05-21T22:10:33.650Z,11.00
2023-05-21T22:13:02.978Z,8.10
2023-05-21T22:15:32.311Z,10.10
2023-05-21T22:18:03.639Z,10.50
2023-05-21T22:20:33.156Z,15.20
2023-05-21T22:23:01.319Z,14.70
2023-05-21T22:25:29.330Z,11.90
2023-05-21T22:27:57.326Z,9.80
2023-05-21T22:30:25.265Z,9.40
2023-05-21T22:32:53.359Z,8.10
2023-05-21T22:35:21.415Z,9.00
2023-05-21T22:37:49.393Z,14.50
2023-05-21T22:40:17.594Z,9.60
2023-05-21T22:42:47.122Z,7.70
2023-05-21T22:45:15.386Z,8.30
2023-05-21T22:47:43.368Z,12.30
2023-05-21T22:50:11.368Z,7.70
2023-05-21T22:52:39.482Z,8.90
2023-05-21T22:55:11.279Z,9.40
2023-05-21T22:57:39.567Z,10.70
2023-05-21T23:00:09.128Z,11.90
2023-05-21T23:02:37.436Z,12.00
2023-05-21T23:05:05.765Z,12.40
2023-05-21T23:07:33.744Z,14.90
2023-05-21T23:10:01.819Z,12.40
2023-05-21T23:12:29.985Z,10.70
2023-05-21T23:14:57.937Z,10.80
2023-05-21T23:17:26.378Z,14.00
2023-05-21T23:19:54.364Z,11.60
2023-05-21T23:22:22.358Z,13.70
2023-05-21T23:24:51.110Z,11.40
2023-05-21T23:27:19.224Z,14.60
2023-05-21T23:29:47.485Z,11.10
2023-05-21T23:32:15.546Z,10.10
2023-05-21T23:34:43.586Z,14.80
2023-05-21T23:37:11.642Z,12.60
2023-05-21T23:39:39.916Z,11.90
2023-05-21T23:42:08.014Z,12.40
2023-05-21T23:44:35.992Z,14.90
2023-05-21T23:47:04.280Z,11.60
2023-05-21T23:49:32.217Z,12.60
2023-05-21T23:52:00.303Z,14.60
2023-05-21T23:54:28.291Z,14.50
2023-05-21T23:56:56.226Z,16.10
2023-05-21T23:59:24.230Z,16.90
